CZ-0105 weather

Rohozec
Central Bohemian Region, Czech Republic

Public forecast

Using degrees Celsius for public forecast. Weather courtesy of forecast.io.

Closest aviation weather report (METAR) to Rohozec

Closest report is Čáslav Air Base, 2.6 nm (4.8 km) S. Retrieved 2019/11/16 00:00 UTC (23 minutes ago):

LKCV 160000Z 15020G30KT 9999 FEW021 BKN160 11/07 Q1004 NOSIG RMK BLU BLU

Closest aviation forecast (TAF) to Rohozec

Closest forecast is Čáslav Air Base, 2.6 nm (4.8 km) S. Retrieved 2019-11-16 00:06 UTC (17 minutes ago):

TAF LKCV 152300Z 1600/1700 14016KT 9999 SCT025 PROB40 TEMPO 1600/1606 14028G38KT RA BKN015 BECMG 1606/1609 17010KT BECMG 1610/1612 27006KT